Time;durP1;ratioP1;P1;durP2;ratioP2;P2;SDS_P1;SDS_P2;PMS_P1;PMS_P2;Temp;Humidity;BMP_temperature;BMP_pressure;BME280_temperature;BME280_humidity;BME280_pressure;Samples;Min_cycle;Max_cycle;Signal;HPM_P1;HPM_P2
2022/08/27 00:00:07;;;;;;;8.10;3.33;;;17.80;99.90;;;;;;5105923;28;21769;-68
2022/08/27 00:02:34;;;;;;;12.95;3.70;;;17.80;99.90;;;;;;5088628;28;20039;-68
2022/08/27 00:05:01;;;;;;;8.10;3.80;;;17.70;99.90;;;;;;5105857;28;22003;-68
2022/08/27 00:07:27;;;;;;;7.80;3.53;;;17.60;99.90;;;;;;5088515;28;20055;-68
2022/08/27 00:09:52;;;;;;;7.88;2.78;;;17.60;99.90;;;;;;5106375;28;20028;-68
2022/08/27 00:12:18;;;;;;;8.27;3.95;;;17.60;99.90;;;;;;5084392;28;20104;-68
2022/08/27 00:14:44;;;;;;;6.03;3.55;;;17.60;99.90;;;;;;5106448;28;20359;-68
2022/08/27 00:17:10;;;;;;;13.93;3.95;;;17.60;99.90;;;;;;5086491;28;20083;-68
2022/08/27 00:19:36;;;;;;;5.72;3.42;;;17.50;99.90;;;;;;5106391;27;20134;-68
2022/08/27 00:22:02;;;;;;;9.38;3.90;;;17.50;99.90;;;;;;5088315;28;20047;-68
2022/08/27 00:24:28;;;;;;;9.43;3.63;;;17.50;99.90;;;;;;5106058;27;20074;-67
2022/08/27 00:26:54;;;;;;;6.10;3.42;;;17.40;99.90;;;;;;5083689;28;20456;-67
2022/08/27 00:29:20;;;;;;;5.30;3.72;;;17.40;99.90;;;;;;5105382;28;20036;-67
2022/08/27 00:31:46;;;;;;;4.88;3.80;;;17.30;99.90;;;;;;5106694;28;20031;-67
2022/08/27 00:34:12;;;;;;;8.98;4.05;;;17.40;99.90;;;;;;5105193;28;20044;-67
2022/08/27 00:36:37;;;;;;;9.32;3.88;;;17.30;99.90;;;;;;5104621;28;20032;-67
2022/08/27 00:39:03;;;;;;;9.63;4.05;;;17.40;99.90;;;;;;5108799;27;20036;-67
2022/08/27 00:41:29;;;;;;;8.02;4.15;;;17.30;99.90;;;;;;5103437;27;20043;-67
2022/08/27 00:43:59;;;;;;;5.53;3.50;;;17.40;99.90;;;;;;5107187;28;20036;-67
2022/08/27 00:46:54;;;;;;;12.88;4.05;;;17.40;99.90;;;;;;5106566;27;20424;-67
2022/08/27 00:49:27;;;;;;;14.75;4.60;;;17.40;99.90;;;;;;5083535;28;20052;-67
2022/08/27 00:51:59;;;;;;;15.32;4.88;;;17.40;99.90;;;;;;5104858;28;20039;-67
2022/08/27 00:54:26;;;;;;;9.18;3.90;;;17.40;99.90;;;;;;5104287;27;20074;-67
2022/08/27 00:56:54;;;;;;;8.52;3.67;;;17.40;99.90;;;;;;5105739;28;20048;-67
2022/08/27 00:59:23;;;;;;;16.98;3.60;;;17.40;99.90;;;;;;5104977;28;20066;-68
2022/08/27 01:04:36;;;;;;;6.63;2.92;;;17.40;99.90;;;;;;5102564;28;20063;-67
2022/08/27 01:07:02;;;;;;;10.57;3.45;;;17.30;99.90;;;;;;5105656;28;20063;-67
2022/08/27 01:09:28;;;;;;;3.80;2.97;;;17.30;99.90;;;;;;5104047;28;20050;-67
2022/08/27 01:11:56;;;;;;;6.20;4.18;;;17.30;99.90;;;;;;5104453;27;20050;-67
2022/08/27 01:14:22;;;;;;;9.65;4.15;;;17.30;99.90;;;;;;5105200;28;20046;-67
2022/08/27 01:16:53;;;;;;;5.78;3.22;;;17.30;99.90;;;;;;5084748;28;20039;-67
2022/08/27 01:19:37;;;;;;;11.95;3.60;;;17.30;99.90;;;;;;5103972;27;20044;-67
2022/08/27 01:22:24;;;;;;;11.27;4.22;;;17.30;99.90;;;;;;5087947;28;20127;-67
2022/08/27 01:24:54;;;;;;;9.20;3.45;;;17.30;99.90;;;;;;5074225;28;20031;-67
2022/08/27 01:27:23;;;;;;;6.60;3.38;;;17.20;99.90;;;;;;5103021;28;20078;-67
2022/08/27 01:29:50;;;;;;;8.02;3.33;;;17.20;99.90;;;;;;5084109;28;20051;-67
2022/08/27 01:32:20;;;;;;;13.73;4.53;;;17.20;99.90;;;;;;5084123;28;20046;-68
2022/08/27 01:34:46;;;;;;;9.05;4.07;;;17.20;99.90;;;;;;5085686;28;20035;-67
2022/08/27 01:37:13;;;;;;;6.65;4.07;;;17.20;99.90;;;;;;5082039;28;20131;-67
2022/08/27 01:39:40;;;;;;;8.68;4.07;;;17.20;99.90;;;;;;5101707;27;20043;-67
2022/08/27 01:42:29;;;;;;;8.18;4.13;;;17.10;99.90;;;;;;5086985;28;20039;-67
2022/08/27 01:45:08;;;;;;;10.02;4.10;;;17.10;99.90;;;;;;5104450;28;20044;-67
2022/08/27 01:47:35;;;;;;;8.05;3.78;;;17.10;99.90;;;;;;5104248;27;20047;-67
2022/08/27 01:50:03;;;;;;;18.33;4.68;;;17.10;99.90;;;;;;5084321;28;20617;-67
2022/08/27 01:52:30;;;;;;;8.85;3.88;;;17.10;99.90;;;;;;5103224;27;20504;-67
2022/08/27 01:54:56;;;;;;;8.70;3.90;;;17.10;99.90;;;;;;5101933;28;20498;-67
2022/08/27 01:57:22;;;;;;;11.70;3.70;;;17.10;99.90;;;;;;5104038;28;20044;-67
2022/08/27 01:59:48;;;;;;;8.88;4.45;;;17.10;99.90;;;;;;5087051;28;20051;-68
2022/08/27 02:02:15;;;;;;;12.05;3.60;;;17.00;99.90;;;;;;5087502;28;20047;-68
2022/08/27 02:04:42;;;;;;;9.68;4.78;;;17.00;99.90;;;;;;5084366;28;20127;-68
2022/08/27 02:07:08;;;;;;;6.50;3.75;;;17.00;99.90;;;;;;5102311;28;20047;-68
2022/08/27 02:09:34;;;;;;;8.52;3.78;;;16.90;99.90;;;;;;5103445;28;20149;-68
2022/08/27 02:12:00;;;;;;;6.88;3.90;;;16.90;99.90;;;;;;5104872;28;20137;-68
2022/08/27 02:14:27;;;;;;;3.90;3.40;;;16.90;99.90;;;;;;5068576;28;20511;-68
2022/08/27 02:16:52;;;;;;;8.35;4.00;;;16.80;99.90;;;;;;5086082;28;20497;-68
2022/08/27 02:19:18;;;;;;;11.23;3.80;;;16.80;99.90;;;;;;5100904;28;20043;-68
2022/08/27 02:21:44;;;;;;;6.90;4.07;;;16.90;99.90;;;;;;5102646;28;20039;-68
2022/08/27 02:24:10;;;;;;;8.77;3.50;;;16.80;99.90;;;;;;5083816;28;20395;-68
2022/08/27 02:26:36;;;;;;;6.35;3.00;;;16.80;99.90;;;;;;5104361;28;20039;-68
2022/08/27 02:29:03;;;;;;;11.63;4.00;;;16.80;99.90;;;;;;5084605;28;20134;-68
2022/08/27 02:31:28;;;;;;;12.05;3.80;;;16.80;99.90;;;;;;5084359;28;20097;-68
2022/08/27 02:33:54;;;;;;;8.57;3.40;;;16.70;99.90;;;;;;5100957;28;20051;-68
2022/08/27 02:36:20;;;;;;;6.15;3.88;;;16.70;99.90;;;;;;5086351;28;20043;-69
2022/08/27 02:38:45;;;;;;;16.45;3.53;;;16.70;99.90;;;;;;5066971;28;20699;-68
2022/08/27 02:41:11;;;;;;;6.45;3.95;;;16.70;99.90;;;;;;5100666;28;20122;-68
2022/08/27 02:43:37;;;;;;;4.35;2.92;;;16.70;99.90;;;;;;5084650;28;20044;-68
2022/08/27 02:46:03;;;;;;;11.13;4.38;;;16.60;99.90;;;;;;5084877;28;20065;-68
2022/08/27 02:48:29;;;;;;;6.43;3.60;;;16.60;99.90;;;;;;5085659;28;20044;-68
2022/08/27 02:50:55;;;;;;;4.88;3.13;;;16.50;99.90;;;;;;5102836;28;20048;-68
2022/08/27 02:53:21;;;;;;;6.65;3.38;;;16.50;99.90;;;;;;5082462;28;20047;-68
2022/08/27 02:55:47;;;;;;;6.47;3.97;;;16.40;99.90;;;;;;5102137;28;20050;-68
2022/08/27 02:58:15;;;;;;;9.77;3.97;;;16.40;99.90;;;;;;5102511;28;20412;-68
2022/08/27 03:00:42;;;;;;;9.45;4.57;;;16.40;99.90;;;;;;5103285;28;20035;-68
2022/08/27 03:03:09;;;;;;;8.38;4.07;;;16.40;99.90;;;;;;5103422;27;20520;-69
2022/08/27 03:05:37;;;;;;;8.37;3.40;;;16.30;99.90;;;;;;5105059;28;20500;-69
2022/08/27 03:08:04;;;;;;;8.57;3.88;;;16.40;99.90;;;;;;5109811;27;20059;-69
2022/08/27 03:10:29;;;;;;;7.50;3.88;;;16.40;99.90;;;;;;5101393;28;20051;-69
2022/08/27 03:12:56;;;;;;;6.28;4.05;;;16.30;99.90;;;;;;5103208;28;20042;-69
2022/08/27 03:15:22;;;;;;;5.38;3.25;;;16.30;99.90;;;;;;5102070;28;20079;-69
2022/08/27 03:20:37;;;;;;;5.05;3.95;;;16.30;99.90;;;;;;5102596;28;20050;-68
2022/08/27 03:23:02;;;;;;;13.93;4.32;;;16.30;99.90;;;;;;5104753;28;20089;-68
2022/08/27 03:25:28;;;;;;;8.57;3.45;;;16.30;99.90;;;;;;5089161;28;20040;-68
2022/08/27 03:27:54;;;;;;;8.32;3.40;;;16.30;99.90;;;;;;5107051;27;20075;-69
2022/08/27 03:30:21;;;;;;;11.77;4.22;;;16.30;99.90;;;;;;5106557;27;20066;-68
2022/08/27 03:32:47;;;;;;;5.93;3.63;;;16.30;99.90;;;;;;5106159;28;20081;-68
2022/08/27 03:35:13;;;;;;;9.00;4.10;;;16.30;99.90;;;;;;5087328;28;20036;-68
2022/08/27 03:37:39;;;;;;;8.30;3.83;;;16.30;99.90;;;;;;5107775;27;20057;-68
2022/08/27 03:40:06;;;;;;;8.75;4.43;;;16.30;99.90;;;;;;5088160;28;20546;-68
2022/08/27 03:42:33;;;;;;;7.30;3.90;;;16.30;99.90;;;;;;5104036;28;20526;-68
2022/08/27 03:44:59;;;;;;;8.82;3.83;;;16.20;99.90;;;;;;5101509;28;20164;-68
2022/08/27 03:47:25;;;;;;;13.23;4.70;;;16.30;99.90;;;;;;5104368;28;20040;-69
2022/08/27 03:49:52;;;;;;;9.80;3.40;;;16.20;99.90;;;;;;5106992;28;20899;-69
2022/08/27 03:52:18;;;;;;;6.60;3.47;;;16.20;99.90;;;;;;5104191;28;20047;-68
2022/08/27 03:54:44;;;;;;;5.82;4.00;;;16.20;99.90;;;;;;5103895;27;20035;-68
2022/08/27 03:57:10;;;;;;;10.00;4.05;;;16.20;99.90;;;;;;5087917;28;20130;-68
2022/08/27 03:59:36;;;;;;;6.22;3.83;;;16.10;99.90;;;;;;5087441;28;20138;-68
2022/08/27 04:02:03;;;;;;;7.63;3.80;;;16.20;99.90;;;;;;5107127;28;20051;-68
2022/08/27 04:04:30;;;;;;;9.68;3.55;;;16.20;99.90;;;;;;5103839;28;20047;-68
2022/08/27 04:06:56;;;;;;;6.95;3.88;;;16.10;99.90;;;;;;5106526;28;20048;-68
2022/08/27 04:09:22;;;;;;;9.55;4.03;;;16.10;99.90;;;;;;5086730;28;20044;-68
2022/08/27 04:11:48;;;;;;;6.72;3.67;;;16.10;99.90;;;;;;5086798;28;20080;-68
2022/08/27 04:14:14;;;;;;;10.95;4.65;;;16.10;99.90;;;;;;5085260;28;20039;-68
2022/08/27 04:16:40;;;;;;;6.18;4.35;;;16.10;99.90;;;;;;5084976;28;20047;-68
2022/08/27 04:19:06;;;;;;;8.88;4.03;;;16.00;99.90;;;;;;5087264;28;20100;-68
2022/08/27 04:21:34;;;;;;;7.40;4.05;;;16.00;99.90;;;;;;5106597;27;20052;-68
2022/08/27 04:24:01;;;;;;;6.38;3.38;;;16.00;99.90;;;;;;5085671;28;20073;-68
2022/08/27 04:26:27;;;;;;;6.72;3.67;;;15.90;99.90;;;;;;5085345;28;20047;-68
2022/08/27 04:28:54;;;;;;;7.85;4.13;;;16.00;99.90;;;;;;5108981;28;20511;-68
2022/08/27 04:31:20;;;;;;;5.47;3.63;;;16.00;99.90;;;;;;5108354;27;20062;-68
2022/08/27 04:33:46;;;;;;;8.80;4.53;;;16.00;99.90;;;;;;5103114;28;20052;-69
2022/08/27 04:36:13;;;;;;;16.58;4.75;;;16.00;99.90;;;;;;5108575;28;20115;-70
2022/08/27 04:38:39;;;;;;;10.27;4.25;;;15.90;99.90;;;;;;5108821;28;20058;-70
2022/08/27 04:41:20;;;;;;;7.85;3.95;;;15.90;99.90;;;;;;5108900;28;20031;-70
2022/08/27 04:43:51;;;;;;;7.95;4.60;;;15.90;99.90;;;;;;5109758;28;20054;-70
2022/08/27 04:46:22;;;;;;;9.68;4.65;;;15.80;99.90;;;;;;5108553;28;20808;-70
2022/08/27 04:48:48;;;;;;;5.00;3.75;;;15.80;99.90;;;;;;5105439;28;20039;-70
2022/08/27 04:51:14;;;;;;;12.25;4.32;;;15.80;99.90;;;;;;5108936;28;20047;-70
2022/08/27 04:53:39;;;;;;;8.90;4.10;;;15.80;99.90;;;;;;5101259;28;20855;-70
2022/08/27 04:56:05;;;;;;;7.82;4.28;;;15.70;99.90;;;;;;5107980;28;20122;-70
2022/08/27 04:58:31;;;;;;;5.93;4.10;;;15.80;99.90;;;;;;5109240;28;20088;-70
2022/08/27 05:01:00;;;;;;;10.70;4.22;;;15.70;99.90;;;;;;5107350;27;20132;-70
2022/08/27 05:03:27;;;;;;;23.20;4.78;;;15.70;99.90;;;;;;5106918;28;20040;-70
2022/08/27 05:06:02;;;;;;;6.32;4.53;;;15.70;99.90;;;;;;5108128;28;20493;-70
2022/08/27 05:08:28;;;;;;;8.85;4.15;;;15.70;99.90;;;;;;5107980;28;20456;-70
2022/08/27 05:10:54;;;;;;;6.60;4.13;;;15.70;99.90;;;;;;5087349;27;20905;-70
2022/08/27 05:13:23;;;;;;;7.75;4.30;;;15.70;99.90;;;;;;5101873;27;20086;-70
2022/08/27 05:15:49;;;;;;;7.65;4.32;;;15.70;99.90;;;;;;5095508;28;20039;-70
2022/08/27 05:18:16;;;;;;;6.38;3.33;;;15.70;99.90;;;;;;5098126;28;20110;-70
2022/08/27 05:20:47;;;;;;;9.68;4.07;;;15.60;99.90;;;;;;5097809;28;20417;-70
2022/08/27 05:23:14;;;;;;;5.53;3.92;;;15.70;99.90;;;;;;5080739;28;20044;-70
2022/08/27 05:25:42;;;;;;;12.32;3.85;;;15.70;99.90;;;;;;5100425;28;20070;-70
2022/08/27 05:28:09;;;;;;;11.63;4.13;;;15.70;99.90;;;;;;5076300;28;20090;-70
2022/08/27 05:30:43;;;;;;;9.65;3.83;;;15.70;99.90;;;;;;5097580;28;20051;-70
2022/08/27 05:33:10;;;;;;;5.43;3.78;;;15.70;99.90;;;;;;5102822;28;20051;-70
2022/08/27 05:35:41;;;;;;;6.68;3.60;;;15.60;99.90;;;;;;5087002;28;20047;-70
2022/08/27 05:38:07;;;;;;;6.65;3.95;;;15.70;99.90;;;;;;5086047;28;20047;-70
2022/08/27 05:40:33;;;;;;;7.72;3.80;;;15.80;99.90;;;;;;5086832;28;20047;-69
2022/08/27 05:42:58;;;;;;;10.65;4.28;;;15.80;99.90;;;;;;5085631;28;20409;-69
2022/08/27 05:45:25;;;;;;;5.88;4.68;;;15.90;99.90;;;;;;5103312;28;20035;-70
2022/08/27 05:47:51;;;;;;;5.05;3.60;;;16.00;99.90;;;;;;5102422;28;20890;-69
2022/08/27 05:50:17;;;;;;;5.88;4.30;;;16.10;99.90;;;;;;5104807;28;20075;-70
2022/08/27 05:52:43;;;;;;;8.77;3.85;;;16.20;99.90;;;;;;5103274;28;20046;-68
2022/08/27 05:55:09;;;;;;;13.02;4.10;;;16.20;99.90;;;;;;5103938;28;20074;-69
2022/08/27 05:57:34;;;;;;;7.90;4.50;;;16.30;99.90;;;;;;5106144;27;20039;-70
2022/08/27 06:02:45;;;;;;;13.57;4.80;;;16.30;99.90;;;;;;5104521;28;20051;-70
2022/08/27 06:05:11;;;;;;;5.32;3.55;;;16.40;99.90;;;;;;5105226;27;20128;-70
2022/08/27 06:07:36;;;;;;;4.60;3.30;;;16.40;99.90;;;;;;5102291;28;20489;-70
2022/08/27 06:10:05;;;;;;;8.13;3.83;;;16.50;99.90;;;;;;5102660;28;20118;-70
2022/08/27 06:12:31;;;;;;;7.82;4.18;;;16.50;99.90;;;;;;5105458;28;20044;-69
2022/08/27 06:14:56;;;;;;;11.52;3.72;;;16.60;99.90;;;;;;5103320;28;20136;-69
2022/08/27 06:17:23;;;;;;;8.57;3.75;;;16.70;99.90;;;;;;5103989;28;20405;-69
2022/08/27 06:19:49;;;;;;;9.88;4.18;;;16.70;99.90;;;;;;5097648;28;20062;-69
2022/08/27 06:22:14;;;;;;;9.30;4.18;;;16.80;99.90;;;;;;5101458;28;20051;-69
2022/08/27 06:24:41;;;;;;;9.65;4.00;;;16.90;99.90;;;;;;5083986;28;20075;-68
2022/08/27 06:27:13;;;;;;;11.77;4.43;;;17.00;99.90;;;;;;5084227;28;20039;-69
2022/08/27 06:29:40;;;;;;;11.27;3.92;;;17.00;99.90;;;;;;5103006;28;20105;-69
2022/08/27 06:32:07;;;;;;;10.52;3.80;;;17.10;99.90;;;;;;5104420;28;20048;-69
2022/08/27 06:34:33;;;;;;;7.35;4.15;;;17.10;99.90;;;;;;5103406;28;20058;-69
2022/08/27 06:36:58;;;;;;;8.02;4.43;;;17.10;99.90;;;;;;5107191;28;20048;-69
2022/08/27 06:39:24;;;;;;;7.88;4.03;;;17.10;99.90;;;;;;5107151;28;20095;-69
2022/08/27 06:41:50;;;;;;;4.93;3.58;;;17.20;99.90;;;;;;5108743;28;20083;-69
2022/08/27 06:44:16;;;;;;;7.13;3.63;;;17.20;99.90;;;;;;5108257;28;20032;-68
2022/08/27 06:46:42;;;;;;;9.88;3.85;;;17.20;99.90;;;;;;5105337;28;20043;-68
2022/08/27 06:49:09;;;;;;;8.30;4.60;;;17.30;99.90;;;;;;5103887;28;20213;-69
2022/08/27 06:51:37;;;;;;;10.60;3.97;;;17.30;99.90;;;;;;5066025;28;20105;-69
2022/08/27 06:54:05;;;;;;;7.55;4.63;;;17.40;99.90;;;;;;5089934;28;20049;-68
2022/08/27 06:56:32;;;;;;;7.45;3.53;;;17.50;99.90;;;;;;5062919;28;20115;-69
2022/08/27 06:59:01;;;;;;;13.30;4.63;;;17.70;99.90;;;;;;5105446;27;20054;-69
2022/08/27 07:01:29;;;;;;;9.23;3.33;;;18.00;99.90;;;;;;5106337;28;20780;-69
2022/08/27 07:03:57;;;;;;;8.38;3.85;;;18.40;99.90;;;;;;5104751;28;20051;-69
2022/08/27 07:06:24;;;;;;;6.25;3.70;;;18.70;99.90;;;;;;5105879;28;20085;-69
2022/08/27 07:08:50;;;;;;;19.88;4.13;;;19.10;99.90;;;;;;5101760;28;20048;-69
2022/08/27 07:11:16;;;;;;;9.90;3.80;;;19.50;99.90;;;;;;5085372;28;20055;-69
2022/08/27 07:13:44;;;;;;;14.30;3.97;;;19.70;99.90;;;;;;5101837;28;20031;-69
2022/08/27 07:16:14;;;;;;;14.43;4.35;;;20.00;99.90;;;;;;5084155;28;20130;-70
2022/08/27 07:18:40;;;;;;;11.35;4.22;;;20.30;99.90;;;;;;5103146;28;20051;-69
2022/08/27 07:21:07;;;;;;;10.77;3.45;;;20.50;99.90;;;;;;5102162;28;20028;-69
2022/08/27 07:23:34;;;;;;;7.13;3.10;;;20.70;99.90;;;;;;5083942;28;20481;-69
2022/08/27 07:26:00;;;;;;;3.92;2.83;;;20.90;99.90;;;;;;5101603;28;20058;-69
2022/08/27 07:28:27;;;;;;;13.52;3.65;;;20.90;99.90;;;;;;5103037;28;20044;-69
2022/08/27 07:30:53;;;;;;;8.10;3.13;;;20.90;99.90;;;;;;5103239;28;20046;-69
2022/08/27 07:33:19;;;;;;;9.40;3.25;;;21.00;99.90;;;;;;5103894;28;20088;-69
2022/08/27 07:35:47;;;;;;;5.72;2.67;;;21.20;99.90;;;;;;5101584;28;20052;-69
2022/08/27 07:38:14;;;;;;;9.32;3.67;;;21.40;99.90;;;;;;5102621;28;20046;-69
2022/08/27 07:40:39;;;;;;;8.45;3.20;;;21.40;99.90;;;;;;5084281;28;20066;-69
2022/08/27 07:45:54;;;;;;;5.53;2.70;;;21.80;99.90;;;;;;5104423;28;20048;-69
2022/08/27 07:48:22;;;;;;;7.20;3.67;;;22.00;99.90;;;;;;5084933;28;20039;-69
2022/08/27 07:50:51;;;;;;;9.60;2.25;;;22.10;99.90;;;;;;5091764;28;20055;-69
2022/08/27 07:53:17;;;;;;;7.72;2.83;;;21.90;99.90;;;;;;5108301;27;20549;-69
2022/08/27 07:55:44;;;;;;;10.50;2.95;;;21.80;99.90;;;;;;5107314;28;20097;-69
2022/08/27 07:58:10;;;;;;;9.68;3.83;;;21.70;99.90;;;;;;5092677;28;20047;-69
2022/08/27 08:00:36;;;;;;;13.02;3.50;;;21.60;99.90;;;;;;5088502;28;20055;-69
2022/08/27 08:03:01;;;;;;;11.48;2.85;;;21.50;99.90;;;;;;5106850;28;20040;-69
2022/08/27 08:05:28;;;;;;;6.57;3.30;;;21.30;99.90;;;;;;5088020;28;20086;-69
2022/08/27 08:07:55;;;;;;;7.82;3.38;;;21.20;99.90;;;;;;5107299;28;20420;-69
2022/08/27 08:10:22;;;;;;;11.38;3.63;;;21.00;99.90;;;;;;5105945;28;20036;-69
2022/08/27 08:12:48;;;;;;;16.45;4.35;;;20.90;99.90;;;;;;5108400;28;20104;-68
2022/08/27 08:15:16;;;;;;;7.90;2.95;;;20.80;99.90;;;;;;5106615;28;20027;-69
2022/08/27 08:17:42;;;;;;;12.55;3.88;;;20.90;99.90;;;;;;5089834;28;20073;-69
2022/08/27 08:20:10;;;;;;;10.57;3.63;;;20.90;99.90;;;;;;5081660;28;20052;-69
2022/08/27 08:22:39;;;;;;;11.75;3.65;;;20.80;99.90;;;;;;5091436;28;20047;-69
2022/08/27 08:25:05;;;;;;;7.07;3.33;;;20.80;99.90;;;;;;5086292;28;20085;-69
2022/08/27 08:27:31;;;;;;;8.30;4.20;;;21.00;99.90;;;;;;5102635;28;20123;-67
2022/08/27 08:30:00;;;;;;;7.13;3.67;;;21.40;99.90;;;;;;5078280;28;20135;-69
2022/08/27 08:32:26;;;;;;;11.25;3.60;;;21.40;99.90;;;;;;5109018;28;20043;-69
2022/08/27 08:34:52;;;;;;;12.85;3.03;;;21.50;99.90;;;;;;5091262;28;20063;-69
2022/08/27 08:37:17;;;;;;;10.65;3.47;;;21.40;99.90;;;;;;5091460;28;20083;-68
2022/08/27 08:39:43;;;;;;;12.20;3.10;;;21.50;99.90;;;;;;5108704;28;20107;-69
2022/08/27 08:42:40;;;;;;;3.78;2.63;;;21.50;99.90;;;;;;5102119;28;20109;-69
2022/08/27 08:45:07;;;;;;;8.85;3.17;;;21.80;99.90;;;;;;5087368;28;20048;-68
2022/08/27 08:47:48;;;;;;;24.65;4.80;;;21.60;99.90;;;;;;5101751;28;20035;-68
2022/08/27 08:50:38;;;;;;;13.55;3.05;;;21.50;99.90;;;;;;5104538;28;20051;-69
2022/08/27 08:53:38;;;;;;;12.95;2.63;;;21.20;99.90;;;;;;5089326;28;20063;-68
2022/08/27 08:56:09;;;;;;;4.65;2.53;;;21.00;99.90;;;;;;5081239;28;20040;-68
2022/08/27 08:59:00;;;;;;;8.88;3.05;;;21.10;99.90;;;;;;5083568;28;20496;-68
2022/08/27 09:01:26;;;;;;;8.13;3.50;;;21.10;99.90;;;;;;5101004;28;20512;-69
2022/08/27 09:03:58;;;;;;;9.07;2.70;;;21.10;99.90;;;;;;5108406;28;20042;-68
2022/08/27 09:06:41;;;;;;;7.55;3.42;;;21.30;99.90;;;;;;5102727;28;20043;-69
2022/08/27 09:09:24;;;;;;;8.63;3.10;;;21.70;99.90;;;;;;5102608;28;20495;-69
2022/08/27 09:11:50;;;;;;;4.07;2.45;;;22.10;99.90;;;;;;5103036;28;20043;-68
2022/08/27 09:14:31;;;;;;;9.23;3.40;;;22.10;99.90;;;;;;5102086;28;20050;-68
2022/08/27 09:17:01;;;;;;;8.02;3.25;;;22.00;99.90;;;;;;5074543;28;20053;-68
2022/08/27 09:19:27;;;;;;;11.05;2.92;;;21.90;99.90;;;;;;5087309;28;20051;-67
2022/08/27 09:22:00;;;;;;;12.70;3.58;;;22.20;99.90;;;;;;5104830;28;20092;-68
2022/08/27 09:24:48;;;;;;;12.85;3.40;;;22.40;99.90;;;;;;5107998;28;20035;-68
2022/08/27 09:27:14;;;;;;;4.82;3.00;;;22.40;99.90;;;;;;5090849;28;20052;-67
2022/08/27 09:29:52;;;;;;;12.32;3.72;;;22.30;99.90;;;;;;5079758;28;20113;-68
2022/08/27 09:32:31;;;;;;;12.23;3.60;;;22.20;99.90;;;;;;5103000;28;20694;-68
2022/08/27 09:34:59;;;;;;;14.30;3.30;;;21.90;99.90;;;;;;5105920;28;20054;-69
2022/08/27 09:37:30;;;;;;;9.63;3.97;;;21.70;99.90;;;;;;5097064;28;20800;-69
2022/08/27 09:40:21;;;;;;;10.18;3.38;;;21.70;99.90;;;;;;5095088;28;20044;-68
2022/08/27 09:43:04;;;;;;;7.10;3.15;;;21.90;99.90;;;;;;5108027;28;20043;-69
2022/08/27 09:45:30;;;;;;;8.15;2.90;;;22.00;99.90;;;;;;5098332;28;20048;-68
2022/08/27 09:48:34;;;;;;;8.00;2.92;;;22.20;99.90;;;;;;5122543;27;20042;-68
2022/08/27 09:51:08;;;;;;;6.22;2.95;;;22.30;99.90;;;;;;5004704;28;20209;-69
2022/08/27 09:53:56;;;;;;;9.55;3.88;;;22.20;99.90;;;;;;5080857;28;20135;-68
2022/08/27 09:56:30;;;;;;;8.88;3.05;;;22.20;99.10;;;;;;5075824;27;20047;-68
2022/08/27 09:59:09;;;;;;;7.25;2.25;;;22.20;99.90;;;;;;5107854;27;20083;-69
2022/08/27 10:02:02;;;;;;;10.93;3.40;;;22.30;99.90;;;;;;5081819;28;20060;-68
2022/08/27 10:04:36;;;;;;;7.10;2.30;;;22.30;99.90;;;;;;5083909;28;20044;-68
2022/08/27 10:07:34;;;;;;;11.38;3.58;;;22.20;99.90;;;;;;5087425;28;20040;-68
2022/08/27 10:10:03;;;;;;;10.20;3.00;;;22.20;99.90;;;;;;5029488;28;20068;-66
2022/08/27 10:12:46;;;;;;;11.70;2.80;;;22.10;99.90;;;;;;5092974;28;20036;-68
2022/08/27 10:15:13;;;;;;;10.98;3.42;;;22.20;99.90;;;;;;5084260;28;20060;-68
2022/08/27 10:17:48;;;;;;;9.10;3.30;;;22.00;99.90;;;;;;5085136;28;20063;-68
2022/08/27 10:20:31;;;;;;;12.75;3.33;;;22.00;99.90;;;;;;5084624;28;20472;-68
2022/08/27 10:23:05;;;;;;;7.82;2.97;;;22.10;99.90;;;;;;5086579;28;20047;-68
2022/08/27 10:25:50;;;;;;;11.80;3.55;;;22.00;99.90;;;;;;5086080;28;20047;-68
2022/08/27 10:28:40;;;;;;;11.48;3.88;;;22.10;99.90;;;;;;5079574;28;20417;-68
2022/08/27 10:31:34;;;;;;;11.07;2.47;;;22.20;99.90;;;;;;5079890;28;20401;-67
2022/08/27 10:34:16;;;;;;;15.13;4.43;;;22.10;99.90;;;;;;5081481;28;21097;-68
2022/08/27 10:37:27;;;;;;;8.18;3.22;;;22.20;99.90;;;;;;5079335;28;20568;-68
2022/08/27 10:40:14;;;;;;;5.55;2.97;;;22.00;99.20;;;;;;5059648;28;20520;-68
2022/08/27 10:43:06;;;;;;;9.25;2.80;;;22.00;99.00;;;;;;5083971;28;20491;-68
2022/08/27 10:45:34;;;;;;;19.98;4.05;;;22.30;99.90;;;;;;5081949;28;20058;-68
2022/08/27 10:48:23;;;;;;;6.45;2.78;;;22.30;98.90;;;;;;5084898;28;20048;-68
2022/08/27 10:50:57;;;;;;;12.27;3.20;;;22.40;98.20;;;;;;5083613;28;20120;-69
2022/08/27 10:53:48;;;;;;;7.78;2.83;;;22.50;97.30;;;;;;5081433;28;20050;-68
2022/08/27 10:56:38;;;;;;;9.10;2.63;;;22.70;98.60;;;;;;5082233;28;20055;-68
2022/08/27 10:59:22;;;;;;;10.95;3.13;;;23.10;96.10;;;;;;5079520;28;20055;-68
2022/08/27 11:01:54;;;;;;;9.35;2.80;;;23.20;93.70;;;;;;5080168;28;20044;-68
2022/08/27 11:04:25;;;;;;;10.63;3.00;;;23.20;94.00;;;;;;5080980;28;20130;-68
2022/08/27 11:06:57;;;;;;;7.35;2.70;;;23.40;94.80;;;;;;5083685;28;20083;-68
2022/08/27 11:09:57;;;;;;;6.70;2.90;;;23.40;92.40;;;;;;5083127;28;20604;-68
2022/08/27 11:12:41;;;;;;;9.82;2.30;;;23.40;90.90;;;;;;5081213;28;20140;-68
2022/08/27 11:15:16;;;;;;;9.57;3.47;;;23.30;89.80;;;;;;5084629;28;20064;-68
2022/08/27 11:17:49;;;;;;;7.43;2.85;;;23.30;89.30;;;;;;5084155;28;20052;-68
2022/08/27 11:20:20;;;;;;;13.48;3.08;;;23.30;89.10;;;;;;5081797;28;20047;-69
2022/08/27 11:22:51;;;;;;;3.65;1.92;;;23.40;88.40;;;;;;5084283;28;20548;-68
2022/08/27 11:25:36;;;;;;;6.07;2.13;;;23.50;86.70;;;;;;5087185;28;20420;-68
2022/08/27 11:28:04;;;;;;;4.22;2.17;;;23.50;84.20;;;;;;5086417;28;20059;-69
2022/08/27 11:30:55;;;;;;;11.23;2.38;;;23.70;84.80;;;;;;5085470;28;20063;-68
2022/08/27 11:33:33;;;;;;;7.90;2.53;;;23.90;82.30;;;;;;5063432;28;20059;-68
2022/08/27 11:36:32;;;;;;;8.68;3.08;;;24.10;79.30;;;;;;5090628;28;20083;-68
2022/08/27 11:39:08;;;;;;;6.85;3.20;;;24.20;70.60;;;;;;5086317;28;20058;-68
2022/08/27 11:41:59;;;;;;;14.38;3.13;;;24.40;70.10;;;;;;5087383;28;20401;-69
2022/08/27 11:44:26;;;;;;;15.60;3.13;;;24.20;73.50;;;;;;5087044;28;20048;-68
2022/08/27 11:47:13;;;;;;;8.45;2.25;;;24.20;77.00;;;;;;5079766;28;20161;-68
2022/08/27 11:50:14;;;;;;;10.23;3.08;;;24.00;75.40;;;;;;5081460;28;20040;-68
2022/08/27 11:52:52;;;;;;;7.75;2.83;;;23.80;75.30;;;;;;5085490;28;20082;-68
2022/08/27 11:55:21;;;;;;;10.93;2.67;;;23.70;79.10;;;;;;5085391;28;20067;-68
2022/08/27 11:58:00;;;;;;;10.07;2.38;;;23.60;80.00;;;;;;5085262;28;20047;-69
2022/08/27 12:00:26;;;;;;;16.90;4.20;;;23.70;81.00;;;;;;5095615;27;20113;-69
2022/08/27 12:03:01;;;;;;;7.47;2.58;;;23.60;83.00;;;;;;5104877;28;20474;-69
2022/08/27 12:05:35;;;;;;;26.60;3.90;;;23.70;81.00;;;;;;5106979;28;20039;-71
2022/08/27 12:08:18;;;;;;;10.40;3.17;;;23.70;79.00;;;;;;5089676;28;20036;-67
2022/08/27 12:11:13;;;;;;;7.50;3.65;;;23.70;75.50;;;;;;5086148;28;20039;-67
2022/08/27 12:13:54;;;;;;;8.27;2.78;;;23.70;73.30;;;;;;5087292;28;20131;-67
2022/08/27 12:16:25;;;;;;;13.40;3.78;;;23.70;72.80;;;;;;5108719;27;20050;-70
2022/08/27 12:19:02;;;;;;;11.98;3.33;;;23.70;74.20;;;;;;5093166;27;20461;-66
2022/08/27 12:21:43;;;;;;;8.53;3.30;;;23.80;74.40;;;;;;5101873;27;20334;-66
2022/08/27 12:24:32;;;;;;;6.60;2.78;;;23.90;75.60;;;;;;5105637;28;20119;-67
2022/08/27 12:27:13;;;;;;;14.55;3.30;;;24.00;75.80;;;;;;5101484;28;20055;-67
2022/08/27 12:29:49;;;;;;;12.27;2.80;;;24.40;72.10;;;;;;5087940;28;20146;-67
2022/08/27 12:32:24;;;;;;;7.47;3.47;;;24.60;68.90;;;;;;5106719;27;20159;-66
2022/08/27 12:35:04;;;;;;;15.10;3.08;;;24.50;69.80;;;;;;5104217;27;20048;-67
2022/08/27 12:37:36;;;;;;;6.35;3.47;;;24.80;68.70;;;;;;5105774;28;20039;-66
2022/08/27 12:40:17;;;;;;;11.80;3.47;;;24.60;65.80;;;;;;5101992;28;20071;-67
2022/08/27 12:42:43;;;;;;;6.55;3.08;;;24.20;66.40;;;;;;5103109;28;20055;-67
2022/08/27 12:45:18;;;;;;;7.35;3.10;;;24.10;68.40;;;;;;5103056;28;20093;-66
2022/08/27 12:47:44;;;;;;;10.85;2.63;;;24.10;70.20;;;;;;5100883;27;20123;-66
2022/08/27 12:50:11;;;;;;;12.13;3.33;;;24.30;69.90;;;;;;5101267;28;20051;-66
2022/08/27 12:52:55;;;;;;;10.23;3.53;;;24.30;69.00;;;;;;5103239;28;20043;-66
2022/08/27 12:55:31;;;;;;;5.53;2.35;;;24.30;69.50;;;;;;5104492;28;20496;-67
2022/08/27 12:58:39;;;;;;;6.57;2.50;;;24.40;67.60;;;;;;5085549;28;20051;-66
2022/08/27 13:01:35;;;;;;;8.23;2.85;;;24.80;68.30;;;;;;5102851;28;20055;-66
2022/08/27 13:04:04;;;;;;;16.88;3.08;;;25.10;67.40;;;;;;5106272;28;20481;-66
2022/08/27 13:06:35;;;;;;;8.02;2.28;;;25.20;67.30;;;;;;5101929;28;20100;-66
2022/08/27 13:09:07;;;;;;;16.08;2.90;;;25.20;66.90;;;;;;5106386;27;20114;-66
2022/08/27 13:11:55;;;;;;;6.75;2.03;;;25.00;66.30;;;;;;5102191;28;20440;-66
2022/08/27 13:14:24;;;;;;;5.40;2.30;;;24.70;67.30;;;;;;5103572;28;20039;-66